Main page
METAR-TAF:

METAR-TAF

Airports :

Ivano-Frankivsk International Airport

Ivano-Frankivsk, Ukraine

latitude: 48-53-03N, longitude: 024-41-10E, elevation: 280 m

Current weather observation

The report was made 3 hours and 21 minutes ago, at 18:00 UTC
Wind 4 kt from the Southwest
Temperature 4°C
Humidity 87%
Pressure 1026 hPa
Visibility 10 km or more
no clouds below 1500 m and no cumulonimbus

METAR: UKLI 281800Z 22002MPS CAVOK 04/02 Q1026 R28/090070 NOSIG

Time: 00:21 (21:21 UTC)

Forecast

The report was made 4 hours and 20 minutes ago, at 17:01 UTC
Forecast valid from 28 at 18 UTC to 29 at 03 UTC
Wind 2 kt from variable directions
Visibility 10 km or more
Scattered clouds at a height of 3000 ft

TAF: UKLI 281701Z 2818/2903 VRB01MPS 9999 SCT030 TX05/2818Z TNM02/2903Z

Weather observations and forecasts of more than 4000 airports (METAR and TAF reports).

The available stations are represented by yellow and red dots on the map.

Hover mouse over dot to see the name of the station.

Then click to see weather observations and forecasts.

To change the map : click on the green buttons with a black cross to zoom in, on the green button with a dash to zoom out, or on the green arrows for adjacent maps.


METAR-TAF: